Terminal Aerodrome Forecast
Issued by NWS Blacksburg, VA

Current Version | Previous Version | Graphics & Text | Print | Product List | Glossary On
Versions: 1 2 3 4 5 6 7 8 9 10 11 12 13 14 15 16 17 18 19 20 21 22 23 24 25 26
000
FTUS41 KRNK 271139
TAFBLF
TAF
KBLF 271139Z 2712/2812 29006KT 6SM BR OVC002
     FM271400 29003KT P6SM BKN004 BKN020
     FM271600 27060KT P6SM BKN035
     FM280200 25003KT P6SM SCT035=

USA.gov is the U.S. government's official web portal to all federal, state and local government web resources and services.